createdAt,value
2023-09-08T00:00:10.431Z,49.02
2023-09-08T00:02:30.989Z,49.82
2023-09-08T00:04:52.151Z,49.39
2023-09-08T00:07:12.837Z,49.60
2023-09-08T00:09:33.506Z,49.25
2023-09-08T00:11:55.440Z,49.73
2023-09-08T00:14:16.101Z,49.78
2023-09-08T00:16:36.648Z,49.15
2023-09-08T00:18:59.487Z,49.42
2023-09-08T00:21:20.040Z,49.56
2023-09-08T00:23:40.503Z,49.51
2023-09-08T00:26:01.288Z,49.67
2023-09-08T00:28:21.780Z,49.27
2023-09-08T00:30:42.152Z,50.23
2023-09-08T00:33:02.843Z,49.31
2023-09-08T00:35:23.890Z,49.11
2023-09-08T00:37:44.576Z,49.36
2023-09-08T00:40:05.359Z,49.44
2023-09-08T00:42:25.880Z,49.60
2023-09-08T00:44:46.400Z,49.17
2023-09-08T00:47:07.249Z,49.53
2023-09-08T00:49:27.651Z,49.76
2023-09-08T00:51:48.456Z,49.72
2023-09-08T00:54:09.395Z,49.35
2023-09-08T00:56:30.983Z,49.56
2023-09-08T00:58:51.623Z,49.90
2023-09-08T01:01:12.295Z,49.80
2023-09-08T01:03:32.905Z,49.48
2023-09-08T01:05:54.035Z,49.74
2023-09-08T01:08:16.029Z,49.56
2023-09-08T01:10:38.281Z,49.88
2023-09-08T01:12:59.461Z,49.71
2023-09-08T01:15:20.479Z,49.70
2023-09-08T01:17:41.516Z,49.64
2023-09-08T01:20:23.698Z,50.08
2023-09-08T01:23:02.515Z,49.81
2023-09-08T01:25:24.343Z,50.33
2023-09-08T01:27:49.730Z,50.04
2023-09-08T01:30:11.326Z,49.99
2023-09-08T01:32:33.663Z,50.30
2023-09-08T01:34:54.589Z,50.19
2023-09-08T01:37:15.324Z,50.91
2023-09-08T01:39:36.841Z,50.72
2023-09-08T01:41:57.336Z,50.70
2023-09-08T01:44:18.100Z,50.80
2023-09-08T01:46:39.764Z,50.54
2023-09-08T01:49:00.569Z,50.74
2023-09-08T01:51:21.223Z,50.49
2023-09-08T01:53:41.635Z,50.24
2023-09-08T01:56:02.196Z,50.77
2023-09-08T01:58:22.828Z,50.71
2023-09-08T02:00:43.569Z,50.57
2023-09-08T02:03:05.026Z,50.86
2023-09-08T02:05:26.888Z,50.34
2023-09-08T02:07:47.516Z,50.51
2023-09-08T02:10:08.578Z,50.81
2023-09-08T02:12:29.457Z,50.81
2023-09-08T02:14:49.882Z,50.67
2023-09-08T02:17:10.867Z,51.07
2023-09-08T02:19:31.333Z,50.97
2023-09-08T02:21:52.191Z,51.08
2023-09-08T02:24:13.081Z,51.28
2023-09-08T02:26:34.905Z,51.12
2023-09-08T02:28:55.298Z,51.33
2023-09-08T02:31:15.653Z,51.71
2023-09-08T02:33:36.179Z,51.01
2023-09-08T02:35:56.590Z,51.10
2023-09-08T02:38:17.050Z,50.76
2023-09-08T02:40:37.650Z,51.39
2023-09-08T02:42:58.552Z,51.25
2023-09-08T02:45:19.098Z,51.50
2023-09-08T02:47:39.606Z,50.67
2023-09-08T02:50:00.419Z,51.13
2023-09-08T02:52:20.886Z,51.27
2023-09-08T02:54:41.768Z,50.95
2023-09-08T02:57:02.103Z,50.89
2023-09-08T02:59:22.557Z,50.54
2023-09-08T03:01:43.145Z,50.51
2023-09-08T03:04:03.853Z,50.99
2023-09-08T03:06:24.536Z,50.62
2023-09-08T03:08:44.977Z,50.51
2023-09-08T03:11:06.566Z,51.11
2023-09-08T03:13:27.312Z,51.11
2023-09-08T03:15:47.809Z,50.84
2023-09-08T03:18:08.194Z,50.99
2023-09-08T03:20:29.828Z,50.36
2023-09-08T03:22:50.412Z,50.56
2023-09-08T03:25:10.992Z,50.69
2023-09-08T03:27:32.714Z,50.55
2023-09-08T03:29:53.174Z,50.88
2023-09-08T03:32:13.748Z,50.89
2023-09-08T03:34:35.092Z,50.87
2023-09-08T03:36:55.818Z,50.96
2023-09-08T03:39:16.846Z,51.76
2023-09-08T03:41:37.680Z,51.28
2023-09-08T03:43:58.299Z,51.34
2023-09-08T03:46:19.279Z,51.34
2023-09-08T03:48:40.166Z,51.23
2023-09-08T03:51:00.812Z,51.26
2023-09-08T03:53:21.326Z,51.17
2023-09-08T03:55:41.935Z,51.17
2023-09-08T03:58:02.558Z,52.36
2023-09-08T04:00:23.546Z,51.56
2023-09-08T04:02:44.332Z,51.61
2023-09-08T04:05:05.532Z,51.55
2023-09-08T04:07:26.141Z,51.52
2023-09-08T04:09:46.697Z,51.69
2023-09-08T04:12:10.340Z,51.69
2023-09-08T04:14:31.517Z,51.41
2023-09-08T04:16:52.051Z,51.16
2023-09-08T04:19:12.558Z,52.05
2023-09-08T04:21:33.128Z,52.15
2023-09-08T04:23:53.662Z,51.86
2023-09-08T04:26:14.483Z,51.73
2023-09-08T04:28:35.334Z,51.88
2023-09-08T04:30:55.995Z,52.30
2023-09-08T04:33:16.617Z,51.91
2023-09-08T04:35:37.022Z,52.11
2023-09-08T04:37:57.577Z,52.41
2023-09-08T04:40:18.146Z,52.23
2023-09-08T04:42:38.764Z,52.30
2023-09-08T04:44:59.542Z,53.10
2023-09-08T04:47:20.011Z,53.19
2023-09-08T04:49:40.626Z,52.19
2023-09-08T04:52:01.471Z,52.58
2023-09-08T04:54:23.452Z,52.67
2023-09-08T04:56:44.153Z,52.43
2023-09-08T04:59:04.791Z,51.45
2023-09-08T05:01:25.888Z,51.88
2023-09-08T05:03:46.532Z,52.25
2023-09-08T05:06:07.383Z,52.57
2023-09-08T05:08:28.366Z,52.14
2023-09-08T05:10:49.352Z,52.03
2023-09-08T05:13:17.152Z,52.22
2023-09-08T05:15:50.088Z,52.33
2023-09-08T05:18:10.966Z,52.74
2023-09-08T05:20:31.717Z,52.52
2023-09-08T05:22:52.530Z,52.81
2023-09-08T05:25:13.163Z,51.81
2023-09-08T05:27:33.829Z,52.42
2023-09-08T05:29:54.376Z,52.02
2023-09-08T05:32:15.254Z,52.22
2023-09-08T05:34:35.555Z,51.82
2023-09-08T05:36:56.047Z,51.96
2023-09-08T05:39:18.669Z,51.92
2023-09-08T05:41:39.482Z,52.19
2023-09-08T05:44:00.103Z,52.42
2023-09-08T05:46:21.156Z,51.92
2023-09-08T05:48:42.003Z,51.95
2023-09-08T05:51:03.487Z,52.07
2023-09-08T05:53:24.283Z,52.09
2023-09-08T05:55:44.943Z,52.05
2023-09-08T05:58:07.352Z,52.38
2023-09-08T06:00:28.181Z,52.31
2023-09-08T06:02:48.911Z,52.22
2023-09-08T06:05:09.806Z,51.71
2023-09-08T06:07:30.808Z,51.96
2023-09-08T06:09:51.286Z,52.35
2023-09-08T06:12:11.670Z,51.95
2023-09-08T06:14:32.130Z,51.96
2023-09-08T06:16:52.663Z,52.60
2023-09-08T06:19:13.533Z,52.35
2023-09-08T06:21:34.629Z,52.22
2023-09-08T06:23:55.360Z,52.31
2023-09-08T06:26:16.102Z,52.46
2023-09-08T06:28:36.976Z,52.34
2023-09-08T06:30:58.232Z,52.00
2023-09-08T06:33:19.261Z,52.11
2023-09-08T06:35:40.274Z,52.07
2023-09-08T06:38:01.631Z,51.84
2023-09-08T06:40:22.328Z,51.38
2023-09-08T06:42:42.972Z,52.27
2023-09-08T06:45:03.648Z,51.41
2023-09-08T06:47:24.393Z,51.31
2023-09-08T06:49:44.940Z,50.91
2023-09-08T06:52:06.073Z,50.98
2023-09-08T06:54:26.703Z,51.15
2023-09-08T06:56:47.335Z,50.43
2023-09-08T06:59:07.895Z,50.20
2023-09-08T07:01:29.234Z,50.68
2023-09-08T07:03:49.933Z,49.80
2023-09-08T07:06:10.878Z,50.20
2023-09-08T07:08:31.376Z,50.33
2023-09-08T07:10:54.229Z,50.86
2023-09-08T07:13:14.954Z,50.88
2023-09-08T07:15:35.353Z,51.99
2023-09-08T07:17:56.033Z,51.02
2023-09-08T07:20:17.154Z,50.07
2023-09-08T07:22:38.601Z,50.05
2023-09-08T07:24:59.217Z,50.16
2023-09-08T07:27:21.294Z,49.25
2023-09-08T07:29:42.609Z,49.31
2023-09-08T07:32:03.864Z,49.33
2023-09-08T07:34:24.364Z,50.01
2023-09-08T07:36:44.872Z,49.51
2023-09-08T07:39:05.490Z,49.08
2023-09-08T07:41:26.334Z,48.21
2023-09-08T07:43:47.163Z,47.33
2023-09-08T07:46:08.384Z,46.80
2023-09-08T07:48:29.194Z,47.34
2023-09-08T07:50:50.005Z,46.60
2023-09-08T07:53:10.615Z,46.00
2023-09-08T07:55:31.277Z,44.95
2023-09-08T07:57:52.280Z,45.21
2023-09-08T08:00:14.013Z,45.91
2023-09-08T08:02:34.675Z,46.51
2023-09-08T08:04:55.194Z,46.12
2023-09-08T08:07:15.856Z,47.40
2023-09-08T08:09:36.694Z,47.08
2023-09-08T08:11:57.322Z,47.25
2023-09-08T08:14:18.179Z,46.11
2023-09-08T08:16:38.778Z,44.62
2023-09-08T08:19:00.612Z,45.52
2023-09-08T08:21:23.778Z,45.16
2023-09-08T08:23:44.901Z,44.53
2023-09-08T08:26:05.756Z,44.24
2023-09-08T08:28:26.655Z,44.67
2023-09-08T08:30:49.287Z,43.10
2023-09-08T08:33:10.363Z,41.68
2023-09-08T08:35:31.173Z,42.73
2023-09-08T08:37:51.829Z,43.31
2023-09-08T08:40:13.824Z,42.58
2023-09-08T08:42:34.779Z,42.57
2023-09-08T08:44:57.064Z,43.24
2023-09-08T08:47:18.084Z,42.69
2023-09-08T08:49:42.078Z,43.33
2023-09-08T08:52:08.092Z,42.31
2023-09-08T08:54:29.519Z,43.23
2023-09-08T08:56:50.372Z,42.99
2023-09-08T08:59:12.287Z,41.44
2023-09-08T09:01:33.879Z,41.94
2023-09-08T09:03:54.556Z,41.90
2023-09-08T09:06:15.953Z,41.59
2023-09-08T09:08:39.789Z,41.91
2023-09-08T09:11:00.707Z,41.69
2023-09-08T09:13:21.203Z,42.03
2023-09-08T09:15:41.940Z,41.92
2023-09-08T09:18:07.198Z,41.75
2023-09-08T09:20:27.930Z,41.06
2023-09-08T09:22:50.219Z,40.16
2023-09-08T09:25:11.907Z,39.60
2023-09-08T09:27:32.776Z,40.51
2023-09-08T09:29:53.653Z,41.37
2023-09-08T09:32:15.193Z,40.07
2023-09-08T09:34:36.222Z,39.63
2023-09-08T09:36:57.144Z,39.56
2023-09-08T09:39:19.576Z,38.95
2023-09-08T09:41:41.447Z,38.49
2023-09-08T09:44:02.205Z,38.61
2023-09-08T09:46:23.099Z,38.75
2023-09-08T09:48:43.897Z,38.39
2023-09-08T09:51:21.012Z,38.42
2023-09-08T09:53:43.493Z,39.10
2023-09-08T09:56:04.380Z,39.54
2023-09-08T09:58:26.238Z,39.13
2023-09-08T10:00:49.758Z,38.56
2023-09-08T10:03:12.439Z,39.02
2023-09-08T10:05:34.686Z,39.83
2023-09-08T10:07:55.222Z,38.47
2023-09-08T10:10:17.135Z,37.52
2023-09-08T10:12:38.926Z,36.70
2023-09-08T10:15:00.466Z,37.03
2023-09-08T10:17:29.625Z,37.27
2023-09-08T10:19:52.950Z,37.17
2023-09-08T10:22:20.491Z,37.24
2023-09-08T10:24:42.029Z,36.77
2023-09-08T10:27:09.542Z,37.62
2023-09-08T10:29:32.238Z,38.20
2023-09-08T10:31:52.840Z,37.78
2023-09-08T10:34:14.313Z,37.44
2023-09-08T10:36:36.876Z,37.98
2023-09-08T10:39:43.103Z,37.98
2023-09-08T10:42:30.440Z,37.31
2023-09-08T10:44:58.078Z,37.33
2023-09-08T10:47:25.397Z,37.30
2023-09-08T10:49:46.622Z,37.03
2023-09-08T10:52:12.929Z,36.68
2023-09-08T10:54:43.406Z,36.33
2023-09-08T10:57:13.567Z,37.35
2023-09-08T10:59:39.782Z,36.27
2023-09-08T11:02:04.613Z,35.67
2023-09-08T11:04:26.323Z,35.48
2023-09-08T11:06:47.149Z,34.44
2023-09-08T11:09:08.876Z,36.41
2023-09-08T11:11:34.450Z,36.44
2023-09-08T11:13:54.992Z,35.81
2023-09-08T11:16:17.056Z,35.86
2023-09-08T11:18:38.634Z,35.22
2023-09-08T11:21:01.365Z,36.88
2023-09-08T11:23:23.222Z,36.15
2023-09-08T11:25:43.958Z,36.07
2023-09-08T11:28:05.064Z,35.74
2023-09-08T11:30:26.615Z,34.68
2023-09-08T11:32:47.585Z,34.67
2023-09-08T11:35:10.771Z,34.14
2023-09-08T11:37:31.362Z,35.26
2023-09-08T11:39:51.879Z,34.06
2023-09-08T11:42:16.818Z,35.17
2023-09-08T11:44:38.314Z,35.04
2023-09-08T11:46:58.896Z,36.45
2023-09-08T11:49:21.713Z,36.69
2023-09-08T11:51:44.321Z,35.82
2023-09-08T11:54:05.227Z,34.87
2023-09-08T11:56:26.586Z,34.37
2023-09-08T11:58:48.222Z,33.88
2023-09-08T12:01:09.181Z,33.72
2023-09-08T12:03:29.889Z,33.76
2023-09-08T12:05:54.023Z,33.96
2023-09-08T12:08:14.716Z,35.63
2023-09-08T12:10:44.411Z,35.45
2023-09-08T12:13:05.476Z,35.17
2023-09-08T12:15:40.588Z,36.72
2023-09-08T12:18:03.049Z,36.38
2023-09-08T12:20:23.515Z,36.02
2023-09-08T12:22:51.400Z,35.41
2023-09-08T12:25:12.088Z,35.80
2023-09-08T12:27:37.554Z,34.98
2023-09-08T12:30:01.292Z,34.25
2023-09-08T12:32:23.378Z,34.33
2023-09-08T12:34:44.443Z,34.17
2023-09-08T12:37:08.305Z,34.59
2023-09-08T12:39:28.797Z,36.00
2023-09-08T12:41:49.223Z,36.75
2023-09-08T12:44:10.566Z,36.85
2023-09-08T12:46:33.251Z,36.73
2023-09-08T12:48:53.607Z,35.87
2023-09-08T12:51:14.046Z,35.96
2023-09-08T12:53:37.867Z,36.37
2023-09-08T12:55:58.265Z,36.29
2023-09-08T12:58:18.652Z,35.48
2023-09-08T13:00:39.405Z,34.74
2023-09-08T13:03:00.161Z,36.06
2023-09-08T13:05:20.755Z,34.66
2023-09-08T13:07:41.424Z,33.94
2023-09-08T13:10:02.402Z,34.50
2023-09-08T13:12:23.322Z,33.92
2023-09-08T13:14:44.607Z,33.56
2023-09-08T13:17:05.657Z,33.44
2023-09-08T13:19:26.323Z,33.71
2023-09-08T13:21:46.897Z,33.89
2023-09-08T13:24:09.092Z,34.37
2023-09-08T13:26:29.815Z,33.48
2023-09-08T13:28:50.505Z,33.87
2023-09-08T13:31:11.291Z,33.29
2023-09-08T13:33:31.950Z,34.38
2023-09-08T13:35:53.758Z,34.34
2023-09-08T13:38:14.595Z,33.17
2023-09-08T13:40:35.136Z,32.92
2023-09-08T13:42:55.578Z,32.41
2023-09-08T13:45:16.070Z,33.56
2023-09-08T13:47:39.013Z,33.80
2023-09-08T13:50:01.792Z,33.03
2023-09-08T13:52:26.717Z,33.40
2023-09-08T13:54:54.780Z,32.59
2023-09-08T13:57:28.531Z,31.98
2023-09-08T13:59:57.603Z,32.18
2023-09-08T14:04:48.156Z,32.14
2023-09-08T14:09:44.199Z,31.50
2023-09-08T14:14:37.511Z,32.06
2023-09-08T14:16:57.910Z,32.99
2023-09-08T14:19:18.329Z,32.46
2023-09-08T14:21:40.533Z,31.96
2023-09-08T14:24:01.291Z,31.28
2023-09-08T14:26:22.129Z,31.99
2023-09-08T14:28:42.685Z,32.57
2023-09-08T14:31:03.666Z,33.34
2023-09-08T14:33:24.296Z,34.17
2023-09-08T14:35:46.975Z,34.70
2023-09-08T14:38:09.166Z,33.73
2023-09-08T14:40:29.958Z,34.30
2023-09-08T14:42:53.006Z,35.04
2023-09-08T14:45:15.094Z,33.64
2023-09-08T14:47:36.164Z,34.96
2023-09-08T14:49:57.865Z,34.06
2023-09-08T14:52:21.673Z,34.68
2023-09-08T14:54:42.471Z,34.72
2023-09-08T14:57:03.117Z,34.22
2023-09-08T14:59:23.911Z,34.34
2023-09-08T15:01:46.066Z,34.78
2023-09-08T15:04:07.260Z,34.61
2023-09-08T15:06:28.749Z,34.85
2023-09-08T15:08:49.507Z,33.84
2023-09-08T15:11:10.404Z,33.99
2023-09-08T15:13:31.284Z,33.21
2023-09-08T15:15:52.677Z,35.19
2023-09-08T15:18:13.181Z,34.75
2023-09-08T15:20:33.747Z,33.89
2023-09-08T15:22:54.892Z,33.28
2023-09-08T15:25:15.702Z,32.87
2023-09-08T15:27:36.527Z,33.04
2023-09-08T15:29:57.081Z,33.22
2023-09-08T15:32:17.975Z,33.42
2023-09-08T15:34:38.528Z,34.40
2023-09-08T15:36:59.107Z,33.43
2023-09-08T15:39:19.554Z,33.46
2023-09-08T15:41:40.050Z,34.08
2023-09-08T15:44:00.610Z,33.30
2023-09-08T15:46:21.313Z,33.60
2023-09-08T15:48:42.340Z,33.70
2023-09-08T15:51:04.131Z,33.49
2023-09-08T15:53:24.617Z,33.17
2023-09-08T15:55:45.148Z,34.20
2023-09-08T15:58:05.736Z,34.09
2023-09-08T16:00:26.462Z,34.02
2023-09-08T16:02:47.397Z,34.53
2023-09-08T16:05:09.165Z,35.12
2023-09-08T16:07:29.788Z,34.89
2023-09-08T16:09:50.344Z,34.89
2023-09-08T16:12:10.839Z,34.65
2023-09-08T16:14:31.573Z,34.32
2023-09-08T16:16:52.898Z,33.81
2023-09-08T16:19:13.944Z,34.76
2023-09-08T16:21:35.148Z,34.20
2023-09-08T16:23:55.924Z,35.12
2023-09-08T16:26:16.417Z,35.15
2023-09-08T16:28:37.064Z,34.99
2023-09-08T16:31:04.525Z,34.74
2023-09-08T16:33:24.921Z,34.06
2023-09-08T16:35:45.418Z,34.51
2023-09-08T16:38:05.940Z,36.48
2023-09-08T16:40:26.981Z,35.66
2023-09-08T16:42:47.171Z,35.83
2023-09-08T16:45:08.067Z,35.02
2023-09-08T16:47:28.557Z,35.80
2023-09-08T16:49:49.005Z,35.32
2023-09-08T16:52:09.451Z,36.04
2023-09-08T16:54:29.933Z,35.96
2023-09-08T16:56:50.867Z,36.34
2023-09-08T16:59:11.680Z,36.26
2023-09-08T17:01:32.742Z,36.41
2023-09-08T17:03:53.891Z,36.08
2023-09-08T17:06:14.468Z,36.04
2023-09-08T17:08:34.961Z,36.64
2023-09-08T17:10:58.580Z,36.63
2023-09-08T17:13:19.650Z,36.48
2023-09-08T17:15:40.868Z,36.84
2023-09-08T17:18:01.856Z,36.73
2023-09-08T17:20:23.181Z,37.10
2023-09-08T17:22:43.907Z,37.42
2023-09-08T17:25:04.874Z,36.96
2023-09-08T17:27:25.400Z,37.43
2023-09-08T17:29:46.103Z,38.16
2023-09-08T17:32:07.122Z,37.65
2023-09-08T17:34:28.056Z,38.55
2023-09-08T17:36:53.023Z,38.55
2023-09-08T17:39:13.894Z,38.92
2023-09-08T17:41:34.308Z,39.24
2023-09-08T17:43:54.834Z,39.44
2023-09-08T17:46:15.775Z,39.21
2023-09-08T17:48:36.278Z,39.03
2023-09-08T17:50:57.083Z,39.52
2023-09-08T17:53:17.810Z,39.97
2023-09-08T17:55:38.388Z,40.23
2023-09-08T17:57:59.112Z,40.10
2023-09-08T18:00:19.761Z,40.76
2023-09-08T18:02:40.611Z,40.95
2023-09-08T18:05:01.364Z,41.05
2023-09-08T18:07:21.800Z,41.26
2023-09-08T18:09:42.160Z,41.29
2023-09-08T18:12:02.787Z,41.64
2023-09-08T18:14:23.632Z,41.44
2023-09-08T18:16:44.238Z,42.33
2023-09-08T18:19:04.984Z,42.55
2023-09-08T18:21:25.658Z,42.61
2023-09-08T18:23:47.550Z,43.03
2023-09-08T18:26:08.955Z,43.01
2023-09-08T18:28:29.448Z,43.19
2023-09-08T18:30:51.545Z,42.54
2023-09-08T18:33:12.322Z,42.67
2023-09-08T18:35:34.024Z,42.51
2023-09-08T18:37:54.788Z,43.22
2023-09-08T18:40:15.572Z,42.33
2023-09-08T18:42:35.987Z,43.56
2023-09-08T18:44:56.609Z,42.71
2023-09-08T18:47:17.578Z,42.88
2023-09-08T18:49:38.385Z,42.85
2023-09-08T18:51:58.985Z,43.08
2023-09-08T18:54:19.531Z,43.22
2023-09-08T18:56:40.129Z,43.69
2023-09-08T18:59:01.953Z,43.61
2023-09-08T19:01:23.208Z,43.73
2023-09-08T19:03:44.076Z,43.60
2023-09-08T19:06:05.168Z,44.05
2023-09-08T19:08:26.214Z,43.88
2023-09-08T19:10:46.776Z,44.10
2023-09-08T19:13:07.486Z,44.36
2023-09-08T19:15:28.308Z,44.69
2023-09-08T19:17:48.968Z,44.74
2023-09-08T19:20:10.105Z,44.60
2023-09-08T19:22:30.681Z,44.97
2023-09-08T19:24:52.395Z,45.24
2023-09-08T19:27:13.347Z,45.15
2023-09-08T19:29:34.153Z,45.61
2023-09-08T19:31:54.704Z,45.80
2023-09-08T19:34:15.266Z,45.49
2023-09-08T19:36:36.133Z,46.18
2023-09-08T19:38:56.583Z,46.38
2023-09-08T19:41:17.053Z,46.15
2023-09-08T19:43:38.075Z,46.15
2023-09-08T19:46:05.759Z,46.39
2023-09-08T19:48:26.313Z,46.50
2023-09-08T19:50:46.875Z,46.64
2023-09-08T19:53:07.417Z,47.38
2023-09-08T19:55:27.929Z,47.71
2023-09-08T19:57:48.628Z,47.44
2023-09-08T20:00:09.451Z,47.10
2023-09-08T20:02:30.168Z,47.22
2023-09-08T20:04:50.791Z,47.51
2023-09-08T20:07:11.262Z,47.79
2023-09-08T20:09:32.512Z,47.54
2023-09-08T20:11:54.049Z,47.70
2023-09-08T20:14:14.734Z,47.44
2023-09-08T20:16:35.408Z,47.50
2023-09-08T20:18:56.083Z,47.02
2023-09-08T20:21:16.554Z,47.01
2023-09-08T20:23:37.427Z,47.61
2023-09-08T20:25:59.073Z,47.16
2023-09-08T20:28:19.767Z,47.26
2023-09-08T20:30:41.000Z,47.56
2023-09-08T20:33:01.802Z,47.78
2023-09-08T20:35:22.428Z,47.44
2023-09-08T20:37:42.927Z,47.74
2023-09-08T20:40:04.626Z,48.14
2023-09-08T20:42:25.554Z,48.30
2023-09-08T20:44:46.459Z,48.11
2023-09-08T20:47:07.193Z,48.51
2023-09-08T20:49:28.225Z,48.19
2023-09-08T20:51:49.230Z,48.54
2023-09-08T20:54:09.814Z,48.25
2023-09-08T20:56:30.557Z,48.36
2023-09-08T20:58:51.584Z,48.66
2023-09-08T21:01:12.402Z,48.28
2023-09-08T21:03:33.949Z,48.58
2023-09-08T21:05:54.798Z,48.61
2023-09-08T21:08:15.782Z,48.42
2023-09-08T21:10:36.640Z,48.32
2023-09-08T21:12:57.380Z,48.19
2023-09-08T21:15:17.951Z,48.26
2023-09-08T21:17:38.368Z,48.68
2023-09-08T21:20:00.055Z,48.42
2023-09-08T21:22:20.549Z,48.42
2023-09-08T21:24:41.084Z,48.16
2023-09-08T21:27:01.767Z,48.58
2023-09-08T21:29:22.570Z,48.16
2023-09-08T21:31:43.510Z,48.31
2023-09-08T21:34:04.267Z,48.21
2023-09-08T21:36:25.096Z,48.55
2023-09-08T21:38:46.082Z,48.39
2023-09-08T21:41:08.630Z,48.55
2023-09-08T21:43:29.354Z,48.63
2023-09-08T21:45:52.025Z,48.86
2023-09-08T21:48:12.555Z,48.94
2023-09-08T21:50:33.060Z,48.57
2023-09-08T21:52:54.016Z,48.71
2023-09-08T21:55:17.557Z,48.50
2023-09-08T21:57:38.396Z,48.67
2023-09-08T21:59:58.816Z,48.89
2023-09-08T22:02:19.432Z,48.75
2023-09-08T22:04:40.004Z,48.58
2023-09-08T22:07:01.237Z,49.01
2023-09-08T22:09:22.108Z,48.59
2023-09-08T22:11:43.526Z,48.88
2023-09-08T22:14:04.440Z,48.50
2023-09-08T22:16:25.723Z,49.23
2023-09-08T22:18:46.533Z,49.15
2023-09-08T22:21:08.588Z,48.96
2023-09-08T22:23:29.208Z,49.26
2023-09-08T22:25:50.052Z,48.98
2023-09-08T22:28:10.635Z,49.13
2023-09-08T22:30:31.135Z,49.14
2023-09-08T22:32:51.770Z,49.27
2023-09-08T22:35:12.741Z,48.93
2023-09-08T22:37:35.517Z,49.17
2023-09-08T22:39:56.291Z,49.09
2023-09-08T22:42:16.861Z,49.14
2023-09-08T22:44:37.747Z,49.09
2023-09-08T22:46:58.418Z,49.64
2023-09-08T22:49:18.865Z,49.39
2023-09-08T22:51:39.486Z,49.36
2023-09-08T22:54:00.746Z,49.81
2023-09-08T22:56:21.706Z,50.13
2023-09-08T22:58:42.792Z,50.04
2023-09-08T23:01:03.852Z,50.74
2023-09-08T23:03:24.409Z,50.17
2023-09-08T23:05:45.339Z,50.04
2023-09-08T23:08:06.093Z,50.15
2023-09-08T23:10:26.808Z,49.99
2023-09-08T23:12:47.447Z,49.99
2023-09-08T23:15:10.106Z,50.44
2023-09-08T23:17:31.046Z,50.28
2023-09-08T23:19:51.504Z,50.37
2023-09-08T23:22:11.936Z,50.33
2023-09-08T23:24:32.363Z,50.36
2023-09-08T23:26:53.683Z,50.42
2023-09-08T23:29:14.365Z,50.45
2023-09-08T23:31:35.419Z,50.71
2023-09-08T23:33:55.950Z,50.83
2023-09-08T23:36:16.783Z,50.63
2023-09-08T23:38:37.206Z,50.20
2023-09-08T23:40:57.788Z,51.00
2023-09-08T23:43:18.533Z,50.98
2023-09-08T23:45:44.019Z,50.67
2023-09-08T23:48:05.868Z,50.48
2023-09-08T23:50:50.642Z,50.51
2023-09-08T23:53:11.387Z,50.60
2023-09-08T23:55:31.839Z,50.44
2023-09-08T23:57:52.456Z,50.57
